Terminal Aerodrome Forecast
Issued by NWS Boston, MA

Home | Current Version | Previous Version | Text Only | Print | Product List | Glossary On
Versions: 1 2 3 4 5 6 7 8 9 10 11 12 13 14 15 16 17 18 19 20 21
000
FTUS41 KBOX 080225 AAB
TAFORH
TAF AMD
KORH 080225Z 0802/0824 28014KT P6SM SKC
     FM080300 27007KT P6SM BKN130
     FM081200 25005KT P6SM BKN100
     FM081800 26009KT P6SM OVC080=

USA.gov is the U.S. government's official web portal to all federal, state and local government web resources and services.